Time;durP1;ratioP1;P1;durP2;ratioP2;P2;SDS_P1;SDS_P2;PMS_P1;PMS_P2;Temp;Humidity;BMP_temperature;BMP_pressure;BME280_temperature;BME280_humidity;BME280_pressure;Samples;Min_cycle;Max_cycle;Signal;HPM_P1;HPM_P2
2021/12/04 00:02:06;;;;;;;4.78;3.17;;;;;;;;;;4965720;28;20493;-65
2021/12/04 00:04:38;;;;;;;6.10;2.58;;;;;;;;;;4968642;28;20371;-65
2021/12/04 00:07:06;;;;;;;5.57;2.70;;;;;;;;;;4968903;28;20114;-65
2021/12/04 00:09:33;;;;;;;8.70;2.92;;;;;;;;;;4966417;28;20093;-65
2021/12/04 00:12:01;;;;;;;7.85;3.00;;;;;;;;;;4967079;28;20062;-66
2021/12/04 00:14:27;;;;;;;7.78;2.53;;;;;;;;;;4967647;28;20034;-65
2021/12/04 00:16:53;;;;;;;4.32;3.15;;;;;;;;;;4965685;28;20038;-66
2021/12/04 00:19:19;;;;;;;6.45;3.00;;;;;;;;;;4968901;28;20038;-65
2021/12/04 00:21:44;;;;;;;4.50;2.70;;;;;;;;;;4969510;28;20035;-65
2021/12/04 00:24:10;;;;;;;5.15;3.00;;;;;;;;;;4968000;28;20035;-65
2021/12/04 00:26:36;;;;;;;5.82;2.97;;;;;;;;;;4962348;28;20114;-65
2021/12/04 00:29:02;;;;;;;5.28;3.03;;;;;;;;;;4978220;28;20129;-65
2021/12/04 00:31:28;;;;;;;8.57;3.20;;;;;;;;;;4967785;28;20484;-65
2021/12/04 00:33:55;;;;;;;6.82;3.15;;;;;;;;;;4967779;28;20066;-65
2021/12/04 00:36:44;;;;;;;9.73;4.70;;;;;;;;;;4968902;28;20027;-65
2021/12/04 00:50:06;;;;;;;6.80;3.00;;;;;;;;;;4964186;28;19944;-64
2021/12/04 00:52:31;;;;;;;7.78;2.80;;;;;;;;;;4969136;28;20065;-65
2021/12/04 00:54:57;;;;;;;4.22;2.58;;;;;;;;;;4964102;28;20042;-65
2021/12/04 00:57:22;;;;;;;5.40;2.72;;;;;;;;;;4965062;28;20438;-65
2021/12/04 00:59:48;;;;;;;4.50;2.63;;;;;;;;;;4967108;28;20038;-65
2021/12/04 01:02:14;;;;;;;4.85;2.90;;;;;;;;;;4963671;28;20046;-65
2021/12/04 01:04:39;;;;;;;7.97;2.90;;;;;;;;;;4966147;28;20035;-65
2021/12/04 01:07:05;;;;;;;4.18;2.30;;;;;;;;;;4964891;28;20448;-65
2021/12/04 01:09:30;;;;;;;5.28;3.22;;;;;;;;;;4965334;28;20437;-66
2021/12/04 01:11:56;;;;;;;4.40;2.92;;;;;;;;;;4969136;28;20034;-66
2021/12/04 01:14:28;;;;;;;5.50;2.80;;;;;;;;;;4962147;28;20504;-66
2021/12/04 01:16:55;;;;;;;5.35;2.92;;;;;;;;;;4961671;28;20030;-66
2021/12/04 01:19:21;;;;;;;5.97;3.00;;;;;;;;;;4963063;28;20025;-66
2021/12/04 01:21:49;;;;;;;4.68;3.05;;;;;;;;;;4963001;28;20374;-65
2021/12/04 01:24:15;;;;;;;6.13;2.70;;;;;;;;;;4964647;28;20033;-66
2021/12/04 01:26:40;;;;;;;4.38;2.72;;;;;;;;;;4966161;28;20022;-66
2021/12/04 01:29:06;;;;;;;5.65;2.65;;;;;;;;;;4968216;28;20105;-66
2021/12/04 01:31:32;;;;;;;4.18;2.90;;;;;;;;;;4961731;28;20037;-66
2021/12/04 01:33:57;;;;;;;3.88;2.25;;;;;;;;;;4961290;28;20210;-65
2021/12/04 01:36:24;;;;;;;6.85;3.00;;;;;;;;;;4966144;28;20018;-67
2021/12/04 01:38:50;;;;;;;3.80;2.17;;;;;;;;;;4964600;28;20025;-66
2021/12/04 01:41:16;;;;;;;4.28;2.42;;;;;;;;;;4965568;28;20105;-66
2021/12/04 01:43:41;;;;;;;3.90;2.53;;;;;;;;;;4966404;28;20126;-66
2021/12/04 01:46:07;;;;;;;3.78;2.50;;;;;;;;;;4966785;28;20149;-65
2021/12/04 01:48:32;;;;;;;4.40;2.80;;;;;;;;;;4964140;28;20034;-65
2021/12/04 01:50:58;;;;;;;5.85;2.40;;;;;;;;;;4961241;28;20781;-65
2021/12/04 01:53:25;;;;;;;3.33;2.08;;;;;;;;;;4965245;28;20035;-65
2021/12/04 01:55:54;;;;;;;3.70;2.30;;;;;;;;;;4966855;28;20035;-65
2021/12/04 01:58:20;;;;;;;3.53;2.13;;;;;;;;;;4961797;28;20074;-65
2021/12/04 02:00:46;;;;;;;4.30;2.50;;;;;;;;;;4966073;28;20026;-66
2021/12/04 02:03:16;;;;;;;6.03;2.58;;;;;;;;;;4963651;28;20403;-65
2021/12/04 02:05:42;;;;;;;7.40;3.00;;;;;;;;;;4963691;28;20435;-66
2021/12/04 02:08:11;;;;;;;6.18;2.92;;;;;;;;;;4981494;28;20065;-66
2021/12/04 02:10:37;;;;;;;5.55;2.88;;;;;;;;;;4960942;28;20087;-66
2021/12/04 02:13:03;;;;;;;6.05;2.92;;;;;;;;;;4959735;28;20468;-66
2021/12/04 02:15:29;;;;;;;6.68;2.85;;;;;;;;;;4965405;28;21452;-66
2021/12/04 02:17:55;;;;;;;8.57;2.80;;;;;;;;;;4966958;28;20039;-66
2021/12/04 02:20:27;;;;;;;4.43;2.67;;;;;;;;;;4964850;28;20125;-66
2021/12/04 02:22:54;;;;;;;2.88;2.33;;;;;;;;;;4966031;28;20041;-65
2021/12/04 02:25:20;;;;;;;7.28;2.78;;;;;;;;;;4964803;28;20022;-72
2021/12/04 02:27:46;;;;;;;5.05;2.92;;;;;;;;;;4962718;28;20081;-67
2021/12/04 02:30:21;;;;;;;7.15;2.70;;;;;;;;;;4965197;28;20429;-66
2021/12/04 02:32:47;;;;;;;6.25;2.90;;;;;;;;;;4966501;28;20031;-66
2021/12/04 02:35:14;;;;;;;7.03;2.97;;;;;;;;;;4967162;28;20023;-64
2021/12/04 02:37:40;;;;;;;7.05;2.80;;;;;;;;;;4963920;28;20030;-67
2021/12/04 02:40:10;;;;;;;5.30;2.40;;;;;;;;;;4977017;28;20066;-67
2021/12/04 02:42:36;;;;;;;6.95;2.53;;;;;;;;;;4967129;28;20125;-68
2021/12/04 02:45:05;;;;;;;7.57;1.90;;;;;;;;;;4965364;28;20336;-66
2021/12/04 02:47:30;;;;;;;2.65;1.80;;;;;;;;;;4968761;28;20050;-66
2021/12/04 02:49:56;;;;;;;2.92;1.88;;;;;;;;;;4971851;28;20495;-67
2021/12/04 02:52:23;;;;;;;5.18;1.98;;;;;;;;;;4970710;28;20399;-64
2021/12/04 02:54:49;;;;;;;3.13;1.98;;;;;;;;;;4973378;28;20026;-67
2021/12/04 02:57:18;;;;;;;6.30;2.35;;;;;;;;;;4970420;28;20730;-65
2021/12/04 02:59:43;;;;;;;4.30;2.63;;;;;;;;;;4970240;28;21209;-65
2021/12/04 03:02:20;;;;;;;10.10;3.13;;;;;;;;;;4969903;28;20033;-65
2021/12/04 03:04:49;;;;;;;10.27;3.20;;;;;;;;;;4970286;28;20022;-66
2021/12/04 03:07:15;;;;;;;8.35;3.00;;;;;;;;;;4971666;28;20046;-65
2021/12/04 03:09:41;;;;;;;8.45;3.53;;;;;;;;;;4971682;28;20027;-66
2021/12/04 03:12:08;;;;;;;7.18;3.10;;;;;;;;;;4970016;28;20038;-65
2021/12/04 03:14:34;;;;;;;6.80;2.65;;;;;;;;;;4970312;28;20035;-65
2021/12/04 03:17:00;;;;;;;6.35;2.50;;;;;;;;;;4968696;28;20026;-66
2021/12/04 03:19:26;;;;;;;5.20;3.00;;;;;;;;;;4967597;28;20035;-65
2021/12/04 03:21:51;;;;;;;6.07;2.65;;;;;;;;;;4971812;28;20109;-65
2021/12/04 03:24:18;;;;;;;7.25;2.50;;;;;;;;;;4971771;28;20050;-65
2021/12/04 03:26:47;;;;;;;4.45;2.40;;;;;;;;;;4972247;28;20019;-66
2021/12/04 03:29:16;;;;;;;5.40;2.40;;;;;;;;;;4968628;28;20039;-66
2021/12/04 03:42:20;;;;;;;5.80;2.85;;;;;;;;;;4968711;28;20189;-65
2021/12/04 03:44:46;;;;;;;4.32;2.72;;;;;;;;;;4962454;28;20125;-66
2021/12/04 03:47:11;;;;;;;5.68;3.03;;;;;;;;;;4965034;28;20041;-66
2021/12/04 03:49:38;;;;;;;7.18;3.08;;;;;;;;;;4967668;28;20491;-66
2021/12/04 03:52:07;;;;;;;5.75;3.25;;;;;;;;;;4971078;28;20030;-65
2021/12/04 03:54:33;;;;;;;6.40;3.13;;;;;;;;;;4967153;28;20026;-66
2021/12/04 03:57:04;;;;;;;5.47;3.00;;;;;;;;;;4967169;28;20027;-65
2021/12/04 03:59:35;;;;;;;5.68;3.10;;;;;;;;;;4967914;28;20034;-65
2021/12/04 04:02:02;;;;;;;6.13;3.28;;;;;;;;;;4970864;28;20101;-65
2021/12/04 04:04:28;;;;;;;5.28;3.13;;;;;;;;;;4966763;28;20467;-65
2021/12/04 04:06:53;;;;;;;6.05;3.25;;;;;;;;;;4969557;28;20173;-65
2021/12/04 04:09:20;;;;;;;5.35;3.75;;;;;;;;;;4968148;28;20034;-65
2021/12/04 04:11:47;;;;;;;5.05;3.05;;;;;;;;;;4966855;28;20691;-65
2021/12/04 04:14:13;;;;;;;6.03;3.50;;;;;;;;;;4968800;28;20027;-65
2021/12/04 04:16:40;;;;;;;5.43;3.63;;;;;;;;;;4968440;28;20034;-66
2021/12/04 04:19:07;;;;;;;5.65;4.07;;;;;;;;;;4968088;28;20073;-65
2021/12/04 04:21:39;;;;;;;6.40;3.67;;;;;;;;;;4966880;28;20035;-65
2021/12/04 04:24:09;;;;;;;5.85;3.65;;;;;;;;;;4965483;28;20106;-66
2021/12/04 04:26:36;;;;;;;4.57;3.58;;;;;;;;;;4967420;28;20105;-66
2021/12/04 04:29:02;;;;;;;5.03;3.60;;;;;;;;;;4963802;28;20038;-65
2021/12/04 04:31:28;;;;;;;5.97;3.95;;;;;;;;;;4966454;28;20027;-65
2021/12/04 04:34:00;;;;;;;6.45;3.45;;;;;;;;;;4964348;28;20031;-66
2021/12/04 05:11:41;;;;;;;4.78;3.47;;;;;;;;;;4965721;28;19924;-66
2021/12/04 05:14:07;;;;;;;7.20;3.90;;;;;;;;;;4963949;28;20034;-65
2021/12/04 05:16:44;;;;;;;8.10;3.90;;;;;;;;;;4966961;28;20487;-66
2021/12/04 05:19:26;;;;;;;5.85;3.92;;;;;;;;;;4966944;28;20467;-66
2021/12/04 05:21:51;;;;;;;5.85;4.15;;;;;;;;;;4967325;28;20512;-66
2021/12/04 05:24:17;;;;;;;7.43;4.53;;;;;;;;;;4963754;28;20030;-65
2021/12/04 05:26:42;;;;;;;7.63;4.63;;;;;;;;;;4964998;28;20390;-65
2021/12/04 05:29:08;;;;;;;6.68;4.35;;;;;;;;;;4966949;28;20476;-66
2021/12/04 05:31:33;;;;;;;6.38;4.60;;;;;;;;;;4965705;28;20035;-66
2021/12/04 05:33:58;;;;;;;4.97;4.05;;;;;;;;;;4964547;28;20041;-65
2021/12/04 05:36:25;;;;;;;6.82;4.80;;;;;;;;;;4967606;28;20688;-66
2021/12/04 05:38:51;;;;;;;5.18;3.92;;;;;;;;;;4960053;28;20030;-66
2021/12/04 05:41:16;;;;;;;10.30;4.50;;;;;;;;;;4962168;28;20035;-66
2021/12/04 05:43:42;;;;;;;6.75;4.38;;;;;;;;;;4962451;28;20035;-66
2021/12/04 05:46:18;;;;;;;6.68;4.35;;;;;;;;;;4965209;28;20614;-66
2021/12/04 05:56:19;;;;;;;8.05;5.18;;;;;;;;;;4965111;28;20336;-66
2021/12/04 05:58:46;;;;;;;9.10;5.55;;;;;;;;;;4962862;28;20485;-65
2021/12/04 06:01:12;;;;;;;9.55;5.63;;;;;;;;;;4967078;28;20069;-66
2021/12/04 06:03:38;;;;;;;13.30;5.80;;;;;;;;;;4966315;28;20039;-65
2021/12/04 06:06:04;;;;;;;8.30;5.82;;;;;;;;;;4967113;28;20037;-66
2021/12/04 06:08:29;;;;;;;9.90;6.03;;;;;;;;;;4966613;28;20443;-64
2021/12/04 06:10:56;;;;;;;9.30;5.90;;;;;;;;;;4964404;28;20074;-65
2021/12/04 06:13:21;;;;;;;9.13;5.95;;;;;;;;;;4965560;28;20023;-65
2021/12/04 06:15:47;;;;;;;10.25;6.25;;;;;;;;;;4967841;28;20030;-65
2021/12/04 06:18:15;;;;;;;12.73;6.40;;;;;;;;;;4960067;28;20122;-65
2021/12/04 06:23:24;;;;;;;11.95;6.40;;;;;;;;;;4966447;28;20050;-65
2021/12/04 06:25:50;;;;;;;11.25;6.97;;;;;;;;;;4969869;28;20371;-65
2021/12/04 06:28:16;;;;;;;10.20;6.85;;;;;;;;;;4970522;28;20042;-65
2021/12/04 06:30:43;;;;;;;12.90;7.13;;;;;;;;;;4969723;28;20027;-65
2021/12/04 06:33:11;;;;;;;12.82;7.47;;;;;;;;;;4964147;28;20440;-65
2021/12/04 06:35:40;;;;;;;13.05;7.80;;;;;;;;;;4965306;28;20098;-64
2021/12/04 06:38:10;;;;;;;12.77;8.30;;;;;;;;;;4981857;28;20034;-65
2021/12/04 06:40:36;;;;;;;12.82;8.02;;;;;;;;;;4966654;28;20027;-66
2021/12/04 06:43:03;;;;;;;16.05;9.45;;;;;;;;;;4965767;28;20035;-66
2021/12/04 06:45:32;;;;;;;15.00;8.40;;;;;;;;;;4965780;28;20023;-66
2021/12/04 06:48:00;;;;;;;17.00;9.20;;;;;;;;;;4961985;28;20035;-65
2021/12/04 06:53:00;;;;;;;19.67;9.75;;;;;;;;;;4965770;28;20407;-66
2021/12/04 06:55:36;;;;;;;19.85;9.32;;;;;;;;;;4964420;28;20101;-66
2021/12/04 06:58:02;;;;;;;17.52;9.27;;;;;;;;;;4966841;28;20090;-66
2021/12/04 07:00:30;;;;;;;21.20;9.88;;;;;;;;;;4963023;28;20469;-66
2021/12/04 07:02:55;;;;;;;16.45;9.68;;;;;;;;;;4965876;28;20109;-66
2021/12/04 07:05:21;;;;;;;19.95;10.65;;;;;;;;;;4965527;28;20121;-66
2021/12/04 07:07:47;;;;;;;23.63;11.13;;;;;;;;;;4966871;28;20480;-66
2021/12/04 07:10:12;;;;;;;18.20;10.02;;;;;;;;;;4967175;28;20055;-65
2021/12/04 07:12:38;;;;;;;20.52;10.02;;;;;;;;;;4966115;28;20027;-66
2021/12/04 07:15:04;;;;;;;18.88;10.07;;;;;;;;;;4966837;28;20030;-66
2021/12/04 07:17:29;;;;;;;20.83;10.15;;;;;;;;;;4965327;28;20034;-66
2021/12/04 07:19:54;;;;;;;18.20;9.18;;;;;;;;;;4964735;28;20046;-66
2021/12/04 07:22:20;;;;;;;19.70;9.90;;;;;;;;;;4961333;28;20022;-65
2021/12/04 07:24:45;;;;;;;19.20;10.23;;;;;;;;;;4966608;28;20450;-66
2021/12/04 07:27:11;;;;;;;23.70;10.02;;;;;;;;;;4966508;28;20058;-66
2021/12/04 07:29:36;;;;;;;21.33;10.55;;;;;;;;;;4968730;28;20483;-66
2021/12/04 07:32:02;;;;;;;19.95;10.18;;;;;;;;;;4965502;28;20061;-66
2021/12/04 07:34:27;;;;;;;20.17;10.65;;;;;;;;;;4968562;28;20038;-65
2021/12/04 07:36:53;;;;;;;20.38;10.60;;;;;;;;;;4964319;28;20027;-64
2021/12/04 07:39:18;;;;;;;18.70;9.77;;;;;;;;;;4968483;28;20129;-65
2021/12/04 07:41:44;;;;;;;19.38;9.68;;;;;;;;;;4967488;28;20030;-65
2021/12/04 07:44:10;;;;;;;21.38;10.80;;;;;;;;;;4966200;28;20416;-64
2021/12/04 07:46:37;;;;;;;20.90;10.90;;;;;;;;;;4966363;28;20518;-64
2021/12/04 07:49:03;;;;;;;19.13;10.20;;;;;;;;;;4963648;28;20113;-64
2021/12/04 07:51:28;;;;;;;19.95;10.07;;;;;;;;;;4967328;28;20114;-66
2021/12/04 07:53:54;;;;;;;23.05;10.77;;;;;;;;;;4964428;28;20031;-66
2021/12/04 07:56:19;;;;;;;19.75;10.48;;;;;;;;;;4968981;28;20034;-65
2021/12/04 07:58:45;;;;;;;19.90;10.30;;;;;;;;;;4968809;28;20030;-66
2021/12/04 08:01:11;;;;;;;18.38;9.13;;;;;;;;;;4967288;28;20026;-66
2021/12/04 08:03:37;;;;;;;20.08;10.35;;;;;;;;;;4968788;28;20218;-65
2021/12/04 08:06:03;;;;;;;21.48;10.45;;;;;;;;;;4967989;28;20050;-65
2021/12/04 08:08:28;;;;;;;21.67;10.02;;;;;;;;;;4965207;28;20034;-66
2021/12/04 08:10:54;;;;;;;20.73;9.93;;;;;;;;;;4966216;28;20030;-66
2021/12/04 08:13:19;;;;;;;17.98;9.65;;;;;;;;;;4965703;28;20142;-66
2021/12/04 08:15:44;;;;;;;17.02;9.13;;;;;;;;;;4967992;28;20048;-65
2021/12/04 08:18:10;;;;;;;16.75;9.80;;;;;;;;;;4966400;28;20026;-65
2021/12/04 08:20:36;;;;;;;18.67;9.95;;;;;;;;;;4965820;28;20041;-64
2021/12/04 08:23:04;;;;;;;19.17;9.68;;;;;;;;;;4960645;28;20110;-65
2021/12/04 08:25:31;;;;;;;20.58;10.38;;;;;;;;;;4965241;28;20534;-64
2021/12/04 08:27:56;;;;;;;20.35;11.00;;;;;;;;;;4964784;28;20034;-65
2021/12/04 08:30:25;;;;;;;20.15;9.60;;;;;;;;;;4963442;28;20038;-64
2021/12/04 08:32:53;;;;;;;22.63;10.75;;;;;;;;;;4961536;28;20480;-65
2021/12/04 08:35:23;;;;;;;21.13;10.57;;;;;;;;;;4965700;28;20069;-65
2021/12/04 08:37:49;;;;;;;22.27;10.55;;;;;;;;;;4962847;28;20042;-65
2021/12/04 08:40:15;;;;;;;21.80;10.80;;;;;;;;;;4966181;28;20089;-65
2021/12/04 08:42:45;;;;;;;22.42;10.90;;;;;;;;;;4965658;28;20023;-65
2021/12/04 08:45:13;;;;;;;24.83;10.85;;;;;;;;;;4944560;28;20109;-65
2021/12/04 08:47:39;;;;;;;21.70;11.43;;;;;;;;;;4962711;28;20151;-64
2021/12/04 08:50:11;;;;;;;20.27;10.18;;;;;;;;;;4962241;28;20034;-64
2021/12/04 08:52:38;;;;;;;21.45;10.48;;;;;;;;;;4966740;28;20037;-64
2021/12/04 08:55:06;;;;;;;19.75;10.30;;;;;;;;;;4968725;28;20523;-64
2021/12/04 08:57:31;;;;;;;21.95;10.43;;;;;;;;;;4965616;28;20031;-64
2021/12/04 08:59:57;;;;;;;19.55;9.65;;;;;;;;;;4963990;28;20539;-65
2021/12/04 09:02:23;;;;;;;20.77;10.73;;;;;;;;;;4968999;28;20475;-64
2021/12/04 09:04:49;;;;;;;20.33;10.20;;;;;;;;;;4966865;28;20031;-64
2021/12/04 09:07:18;;;;;;;21.20;10.15;;;;;;;;;;4967050;28;20079;-65
2021/12/04 09:09:45;;;;;;;19.60;9.93;;;;;;;;;;4967243;28;20038;-64
2021/12/04 09:12:11;;;;;;;21.38;9.55;;;;;;;;;;4969273;28;20460;-65
2021/12/04 09:14:40;;;;;;;21.50;10.20;;;;;;;;;;4966557;28;20035;-64
2021/12/04 09:17:08;;;;;;;19.20;9.65;;;;;;;;;;4965460;28;20031;-65
2021/12/04 09:19:34;;;;;;;20.35;9.98;;;;;;;;;;4964351;28;20049;-64
2021/12/04 09:22:00;;;;;;;18.25;10.02;;;;;;;;;;4964500;28;20027;-65
2021/12/04 09:24:30;;;;;;;19.92;9.25;;;;;;;;;;4968514;28;20026;-65
2021/12/04 09:29:44;;;;;;;16.80;9.35;;;;;;;;;;4964117;28;20070;-65
2021/12/04 10:32:25;;;;;;;10.68;6.80;;;;;;;;;;4961649;28;20120;-66
2021/12/04 10:34:49;;;;;;;13.55;7.45;;;;;;;;;;4960921;28;20464;-65
2021/12/04 10:37:22;;;;;;;16.15;8.10;;;;;;;;;;4963553;28;20081;-65
2021/12/04 10:39:47;;;;;;;15.93;7.75;;;;;;;;;;4964321;28;20407;-65
2021/12/04 10:42:16;;;;;;;15.60;8.00;;;;;;;;;;4963533;28;20023;-65
2021/12/04 10:44:49;;;;;;;15.32;7.70;;;;;;;;;;4966599;28;20023;-65
2021/12/04 10:47:21;;;;;;;15.30;8.23;;;;;;;;;;4964635;28;20034;-65
2021/12/04 10:55:24;;;;;;;15.95;8.38;;;;;;;;;;4964812;28;20027;-65
2021/12/04 11:00:50;;;;;;;15.60;7.70;;;;;;;;;;4962679;28;20039;-65
2021/12/04 11:06:07;;;;;;;21.00;8.32;;;;;;;;;;4963903;28;20562;-65
2021/12/04 11:25:16;;;;;;;18.35;8.25;;;;;;;;;;4967550;28;20031;-65
2021/12/04 11:41:30;;;;;;;16.02;8.07;;;;;;;;;;4964907;28;20219;-65
2021/12/04 11:44:05;;;;;;;17.27;7.82;;;;;;;;;;4966630;28;20133;-65
2021/12/04 11:46:48;;;;;;;13.50;7.75;;;;;;;;;;4964472;28;20038;-65
2021/12/04 11:49:20;;;;;;;15.90;7.82;;;;;;;;;;4966800;28;20030;-65
2021/12/04 11:51:47;;;;;;;13.93;7.53;;;;;;;;;;4968292;28;20034;-66
2021/12/04 11:54:13;;;;;;;15.65;7.90;;;;;;;;;;4964322;28;20121;-65
2021/12/04 11:56:39;;;;;;;17.30;8.00;;;;;;;;;;4969140;28;20117;-65
2021/12/04 11:59:04;;;;;;;14.30;7.20;;;;;;;;;;4972297;28;20059;-65
2021/12/04 12:01:34;;;;;;;15.57;7.50;;;;;;;;;;4966041;28;20510;-64
2021/12/04 12:04:11;;;;;;;13.77;7.43;;;;;;;;;;4968819;28;20038;-65
2021/12/04 12:06:44;;;;;;;15.95;7.57;;;;;;;;;;4965915;28;20401;-65
2021/12/04 12:09:26;;;;;;;16.05;7.22;;;;;;;;;;4969031;28;20030;-65
2021/12/04 12:12:00;;;;;;;15.82;7.65;;;;;;;;;;4961492;28;20042;-64
2021/12/04 12:14:40;;;;;;;17.25;8.35;;;;;;;;;;4966682;28;20026;-64
2021/12/04 12:17:07;;;;;;;15.25;7.68;;;;;;;;;;4964317;28;20128;-66
2021/12/04 12:19:39;;;;;;;14.25;7.35;;;;;;;;;;4964948;28;20424;-65
2021/12/04 12:22:24;;;;;;;15.40;7.07;;;;;;;;;;4969429;28;20035;-67
2021/12/04 12:36:04;;;;;;;14.52;6.95;;;;;;;;;;4966699;28;20537;-66
2021/12/04 12:38:54;;;;;;;15.38;7.30;;;;;;;;;;4965620;28;20061;-67
2021/12/04 12:41:44;;;;;;;16.15;7.18;;;;;;;;;;4962376;28;20035;-67
2021/12/04 12:44:17;;;;;;;17.08;7.28;;;;;;;;;;4962322;28;20494;-66
2021/12/04 12:47:04;;;;;;;18.20;7.72;;;;;;;;;;4962415;28;20033;-66
2021/12/04 12:49:44;;;;;;;15.20;7.45;;;;;;;;;;4967068;28;20061;-66
2021/12/04 12:52:28;;;;;;;16.83;7.68;;;;;;;;;;4965774;28;20467;-66
2021/12/04 12:54:59;;;;;;;15.13;7.07;;;;;;;;;;4969653;28;20052;-65
2021/12/04 12:57:47;;;;;;;16.38;7.20;;;;;;;;;;4967445;28;20197;-66
2021/12/04 13:14:18;;;;;;;11.30;6.38;;;;;;;;;;4968317;28;20041;-66
2021/12/04 13:16:59;;;;;;;15.70;6.90;;;;;;;;;;4966410;28;20871;-67
2021/12/04 13:19:26;;;;;;;14.88;7.53;;;;;;;;;;4965333;28;20501;-66
2021/12/04 13:21:55;;;;;;;13.27;6.65;;;;;;;;;;4967062;28;20038;-66
2021/12/04 13:24:30;;;;;;;13.60;6.93;;;;;;;;;;4965569;28;20035;-66
2021/12/04 13:29:45;;;;;;;14.88;6.68;;;;;;;;;;4966435;28;20030;-66
2021/12/04 13:32:14;;;;;;;14.13;7.47;;;;;;;;;;4967566;28;20038;-66
2021/12/04 13:34:41;;;;;;;14.95;7.22;;;;;;;;;;4965801;28;20042;-66
2021/12/04 13:37:07;;;;;;;12.18;6.57;;;;;;;;;;4965974;28;20015;-66
2021/12/04 13:39:34;;;;;;;14.05;6.60;;;;;;;;;;4966109;28;20027;-65
2021/12/04 13:42:01;;;;;;;11.60;6.63;;;;;;;;;;4965119;28;20474;-66
2021/12/04 13:44:29;;;;;;;15.93;7.03;;;;;;;;;;4964772;28;20026;-66
2021/12/04 13:47:00;;;;;;;11.07;6.45;;;;;;;;;;4963814;28;20042;-66
2021/12/04 13:49:53;;;;;;;13.60;7.38;;;;;;;;;;4964751;28;20054;-66
2021/12/04 13:52:18;;;;;;;13.50;7.03;;;;;;;;;;4967445;28;20074;-64
2021/12/04 13:54:51;;;;;;;12.82;7.03;;;;;;;;;;4968366;28;20786;-64
2021/12/04 13:57:17;;;;;;;13.90;7.15;;;;;;;;;;4961575;28;20072;-64
2021/12/04 13:59:44;;;;;;;13.65;6.88;;;;;;;;;;4958999;28;21743;-67
2021/12/04 14:02:24;;;;;;;12.38;6.55;;;;;;;;;;4961333;28;20160;-67
2021/12/04 14:05:02;;;;;;;13.48;6.68;;;;;;;;;;4959589;28;20054;-67
2021/12/04 14:07:28;;;;;;;13.73;6.25;;;;;;;;;;4962784;28;20459;-65
2021/12/04 14:09:53;;;;;;;8.85;5.05;;;;;;;;;;4965515;28;20342;-67
2021/12/04 14:12:19;;;;;;;6.82;4.28;;;;;;;;;;4966263;28;20133;-66
2021/12/04 14:14:45;;;;;;;7.53;4.80;;;;;;;;;;4964585;28;20034;-67
2021/12/04 14:17:14;;;;;;;6.63;3.97;;;;;;;;;;4963399;28;20030;-66
2021/12/04 14:19:41;;;;;;;5.93;4.13;;;;;;;;;;4960470;28;20436;-66
2021/12/04 14:22:12;;;;;;;7.35;4.70;;;;;;;;;;4961259;28;20137;-65
2021/12/04 14:24:54;;;;;;;8.35;4.60;;;;;;;;;;4960220;28;20054;-66
2021/12/04 14:27:25;;;;;;;7.22;4.65;;;;;;;;;;4960069;28;20035;-68
2021/12/04 14:30:00;;;;;;;7.32;4.65;;;;;;;;;;4959827;28;20118;-66
2021/12/04 14:32:28;;;;;;;6.38;4.15;;;;;;;;;;4957483;28;20089;-64
2021/12/04 14:35:00;;;;;;;7.75;4.47;;;;;;;;;;4960386;28;20039;-66
2021/12/04 14:37:27;;;;;;;6.32;4.25;;;;;;;;;;4961386;28;20483;-67
2021/12/04 14:39:53;;;;;;;7.95;4.80;;;;;;;;;;4967897;28;20128;-63
2021/12/04 14:42:25;;;;;;;8.25;4.20;;;;;;;;;;4968080;28;20395;-64
2021/12/04 14:45:13;;;;;;;7.57;4.80;;;;;;;;;;4969101;28;20110;-64
2021/12/04 14:47:49;;;;;;;8.15;4.70;;;;;;;;;;4965902;28;20030;-65
2021/12/04 14:50:17;;;;;;;6.03;4.05;;;;;;;;;;4964732;28;20026;-64
2021/12/04 14:52:48;;;;;;;9.57;4.40;;;;;;;;;;4977711;28;20040;-65
2021/12/04 14:55:18;;;;;;;7.18;4.75;;;;;;;;;;4962362;28;20049;-65
2021/12/04 14:57:44;;;;;;;6.78;4.57;;;;;;;;;;4965732;28;20137;-65
2021/12/04 15:00:12;;;;;;;8.60;4.65;;;;;;;;;;4967711;28;20487;-65
2021/12/04 15:02:38;;;;;;;9.32;5.50;;;;;;;;;;4970669;28;20430;-65
2021/12/04 15:05:05;;;;;;;9.70;5.18;;;;;;;;;;4967634;28;20023;-65
2021/12/04 15:07:33;;;;;;;9.68;5.38;;;;;;;;;;4965664;28;20030;-65
2021/12/04 15:10:02;;;;;;;10.65;5.28;;;;;;;;;;4969917;28;20799;-65
2021/12/04 15:12:31;;;;;;;7.35;5.07;;;;;;;;;;4969579;28;20089;-65
2021/12/04 15:15:02;;;;;;;8.48;5.03;;;;;;;;;;4970462;28;20027;-65
2021/12/04 15:17:28;;;;;;;7.93;5.03;;;;;;;;;;4966212;28;20035;-65
2021/12/04 15:20:04;;;;;;;6.85;4.70;;;;;;;;;;4967109;28;20442;-65
2021/12/04 15:22:37;;;;;;;7.22;4.95;;;;;;;;;;4967737;28;20088;-65
2021/12/04 15:25:05;;;;;;;7.00;4.75;;;;;;;;;;4962928;28;20034;-65
2021/12/04 15:27:31;;;;;;;6.10;4.22;;;;;;;;;;4964925;28;20057;-65
2021/12/04 15:29:59;;;;;;;7.15;4.97;;;;;;;;;;4967113;28;20048;-65
2021/12/04 15:32:27;;;;;;;7.47;4.85;;;;;;;;;;4967288;28;20109;-65
2021/12/04 15:35:05;;;;;;;6.88;4.32;;;;;;;;;;4968968;28;20053;-66
2021/12/04 15:37:46;;;;;;;5.70;4.28;;;;;;;;;;4960758;28;20057;-64
2021/12/04 15:40:35;;;;;;;7.28;4.47;;;;;;;;;;4968406;28;20029;-66
2021/12/04 15:51:44;;;;;;;8.13;4.40;;;;;;;;;;4965910;28;20391;-66
2021/12/04 15:54:08;;;;;;;8.30;5.63;;;;;;;;;;4964823;28;20479;-66
2021/12/04 15:56:43;;;;;;;9.65;5.88;;;;;;;;;;4964238;28;20061;-65
2021/12/04 15:59:15;;;;;;;23.90;13.73;;;;;;;;;;4965835;28;20518;-64
2021/12/04 16:01:41;;;;;;;17.23;8.82;;;;;;;;;;4966131;28;20035;-64
2021/12/04 16:04:21;;;;;;;10.10;6.20;;;;;;;;;;4967371;28;20022;-64
2021/12/04 16:06:47;;;;;;;9.38;5.25;;;;;;;;;;4965950;28;20035;-64
2021/12/04 16:09:13;;;;;;;8.90;5.57;;;;;;;;;;4969297;28;20105;-65
2021/12/04 16:11:40;;;;;;;7.53;4.65;;;;;;;;;;4966003;28;20027;-65
2021/12/04 16:14:08;;;;;;;8.10;4.65;;;;;;;;;;4965255;28;20022;-66
2021/12/04 16:16:39;;;;;;;6.55;4.45;;;;;;;;;;4966204;28;20126;-66
2021/12/04 16:19:04;;;;;;;7.63;4.43;;;;;;;;;;4966728;28;20018;-66
2021/12/04 16:21:31;;;;;;;6.93;3.92;;;;;;;;;;4965755;28;20033;-65
2021/12/04 16:23:57;;;;;;;4.88;3.42;;;;;;;;;;4965470;28;20184;-65
2021/12/04 16:26:27;;;;;;;5.53;3.38;;;;;;;;;;4966564;28;20027;-65
2021/12/04 16:29:02;;;;;;;12.88;4.10;;;;;;;;;;4965108;28;20089;-64
2021/12/04 16:37:34;;;;;;;5.38;3.70;;;;;;;;;;4968422;28;20042;-64
2021/12/04 16:40:00;;;;;;;6.05;3.83;;;;;;;;;;4968329;28;20030;-67
2021/12/04 16:42:26;;;;;;;7.38;3.97;;;;;;;;;;4965800;28;20111;-66
2021/12/04 16:44:51;;;;;;;4.93;3.35;;;;;;;;;;4965146;28;20555;-66
2021/12/04 16:47:17;;;;;;;5.65;3.80;;;;;;;;;;4964767;28;20460;-65
2021/12/04 16:49:44;;;;;;;6.65;4.00;;;;;;;;;;4964306;28;20027;-66
2021/12/04 17:00:07;;;;;;;7.18;3.72;;;;;;;;;;4967293;28;20089;-65
2021/12/04 17:02:33;;;;;;;5.80;3.92;;;;;;;;;;4964510;28;20034;-65
2021/12/04 17:04:59;;;;;;;7.93;4.07;;;;;;;;;;4960473;28;20407;-65
2021/12/04 17:07:25;;;;;;;5.43;4.22;;;;;;;;;;4962881;28;20062;-66
2021/12/04 17:09:50;;;;;;;9.02;4.75;;;;;;;;;;4965073;28;20042;-66
2021/12/04 17:12:16;;;;;;;7.30;4.35;;;;;;;;;;4969288;28;20436;-66
2021/12/04 17:14:42;;;;;;;5.45;3.90;;;;;;;;;;4967253;28;20036;-65
2021/12/04 17:17:11;;;;;;;5.63;3.97;;;;;;;;;;4968401;28;20134;-66
2021/12/04 17:19:39;;;;;;;6.72;4.07;;;;;;;;;;4965200;28;20054;-67
2021/12/04 17:22:04;;;;;;;6.15;4.30;;;;;;;;;;4968348;28;20042;-68
2021/12/04 17:24:30;;;;;;;6.97;4.45;;;;;;;;;;4966858;28;20494;-65
2021/12/04 17:27:02;;;;;;;6.13;4.57;;;;;;;;;;4966719;28;20447;-66
2021/12/04 17:29:29;;;;;;;6.65;4.65;;;;;;;;;;4963697;28;20056;-67
2021/12/04 17:31:55;;;;;;;6.60;4.30;;;;;;;;;;4963020;28;20031;-65
2021/12/04 17:34:20;;;;;;;7.47;4.88;;;;;;;;;;4961161;28;20043;-66
2021/12/04 17:36:46;;;;;;;7.22;5.25;;;;;;;;;;4962058;28;20023;-66
2021/12/04 17:39:14;;;;;;;6.88;4.85;;;;;;;;;;4965930;28;20049;-66
2021/12/04 17:41:41;;;;;;;8.57;5.10;;;;;;;;;;4960912;28;20038;-65
2021/12/04 17:44:10;;;;;;;11.13;4.78;;;;;;;;;;4963572;28;20137;-66
2021/12/04 17:46:37;;;;;;;6.97;4.32;;;;;;;;;;4964686;28;20496;-66
2021/12/04 17:49:05;;;;;;;9.65;5.03;;;;;;;;;;4960556;28;20042;-65
2021/12/04 17:51:31;;;;;;;7.20;4.30;;;;;;;;;;4962726;28;20055;-66
2021/12/04 17:54:00;;;;;;;8.68;4.82;;;;;;;;;;4960497;28;20030;-64
2021/12/04 17:56:30;;;;;;;6.72;4.03;;;;;;;;;;4963149;28;20062;-67
2021/12/04 17:58:58;;;;;;;6.15;4.00;;;;;;;;;;4967581;28;20030;-66
2021/12/04 18:01:29;;;;;;;6.05;4.10;;;;;;;;;;4968815;28;20376;-64
2021/12/04 18:03:55;;;;;;;6.85;4.05;;;;;;;;;;4968166;28;20023;-67
2021/12/04 18:06:23;;;;;;;6.15;4.55;;;;;;;;;;4962812;28;20097;-66
2021/12/04 18:08:50;;;;;;;7.20;4.45;;;;;;;;;;4960819;28;20057;-65
2021/12/04 18:11:21;;;;;;;8.50;3.88;;;;;;;;;;4964135;28;20033;-65
2021/12/04 18:13:49;;;;;;;7.97;4.80;;;;;;;;;;4967305;28;20019;-64
2021/12/04 18:16:20;;;;;;;6.32;4.45;;;;;;;;;;4967809;28;20074;-67
2021/12/04 18:18:46;;;;;;;11.25;6.78;;;;;;;;;;4970165;28;20035;-64
2021/12/04 18:21:12;;;;;;;6.18;4.47;;;;;;;;;;4963673;28;20065;-65
2021/12/04 18:23:38;;;;;;;11.98;5.38;;;;;;;;;;4962500;28;20023;-65
2021/12/04 18:26:05;;;;;;;11.18;5.10;;;;;;;;;;4964051;28;20403;-66
2021/12/04 18:28:30;;;;;;;4.53;2.47;;;;;;;;;;4964245;28;20034;-66